Time;durP1;ratioP1;P1;durP2;ratioP2;P2;SDS_P1;SDS_P2;PMS_P1;PMS_P2;Temp;Humidity;BMP_temperature;BMP_pressure;BME280_temperature;BME280_humidity;BME280_pressure;Samples;Min_cycle;Max_cycle;Signal;HPM_P1;HPM_P2
2023/05/11 00:00:15;;;;;;;23.03;15.90;;;14.40;99.90;;;;;;5073238;28;20189;-83
2023/05/11 00:02:40;;;;;;;24.93;18.30;;;14.40;99.90;;;;;;5091156;28;20231;-83
2023/05/11 00:05:06;;;;;;;21.77;17.23;;;14.40;99.90;;;;;;5095983;28;20422;-81
2023/05/11 00:07:32;;;;;;;27.60;18.50;;;14.30;99.90;;;;;;5083973;28;20723;-81
2023/05/11 00:09:57;;;;;;;25.80;18.13;;;14.30;99.90;;;;;;5088129;28;20494;-81
2023/05/11 00:12:23;;;;;;;26.20;18.17;;;14.30;99.90;;;;;;5095833;28;20342;-83
2023/05/11 00:14:48;;;;;;;24.57;16.90;;;14.30;99.90;;;;;;5084263;28;20208;-79
2023/05/11 00:17:14;;;;;;;24.87;17.30;;;14.20;99.90;;;;;;5088028;28;20193;-82
2023/05/11 00:19:39;;;;;;;24.70;17.87;;;14.20;99.90;;;;;;5091241;28;20216;-82
2023/05/11 00:22:05;;;;;;;26.13;17.03;;;14.20;99.90;;;;;;5094016;28;20228;-83
2023/05/11 00:24:30;;;;;;;24.00;17.63;;;14.20;99.90;;;;;;5087953;28;20220;-83
2023/05/11 00:26:56;;;;;;;23.20;16.37;;;14.20;99.90;;;;;;5095514;28;20223;-83
2023/05/11 00:29:21;;;;;;;22.90;17.47;;;14.10;99.90;;;;;;5094091;28;20235;-81
2023/05/11 00:31:47;;;;;;;24.03;16.83;;;14.10;99.90;;;;;;5080346;28;20749;-80
2023/05/11 00:34:16;;;;;;;21.07;17.07;;;14.10;99.90;;;;;;5090911;28;20183;-79
2023/05/11 00:36:42;;;;;;;22.57;16.80;;;14.10;99.90;;;;;;5095834;28;20178;-82
2023/05/11 00:39:10;;;;;;;22.80;15.60;;;14.10;99.90;;;;;;5077885;28;20570;-83
2023/05/11 00:41:36;;;;;;;26.27;16.50;;;14.20;99.90;;;;;;5070663;28;20442;-81
2023/05/11 00:44:01;;;;;;;22.37;15.93;;;14.20;99.90;;;;;;5086716;28;20919;-82
2023/05/11 00:46:27;;;;;;;20.13;14.87;;;14.20;99.90;;;;;;5095099;28;20182;-82
2023/05/11 00:48:53;;;;;;;21.40;14.57;;;14.20;99.90;;;;;;5095748;28;20186;-83
2023/05/11 00:51:23;;;;;;;19.37;15.30;;;14.20;99.90;;;;;;5072134;28;20452;-82
2023/05/11 00:53:49;;;;;;;20.70;13.00;;;14.20;99.90;;;;;;5095542;28;20301;-79
2023/05/11 00:56:15;;;;;;;18.90;14.23;;;14.20;99.90;;;;;;5065733;28;20457;-81
2023/05/11 00:58:40;;;;;;;18.30;13.90;;;14.10;99.90;;;;;;5090876;28;20466;-81
2023/05/11 01:01:06;;;;;;;20.33;14.83;;;14.10;99.90;;;;;;5067748;28;20224;-79
2023/05/11 01:03:32;;;;;;;24.73;15.10;;;14.00;99.90;;;;;;5089786;28;20305;-82
2023/05/11 01:06:26;;;;;;;19.13;13.97;;;14.00;99.90;;;;;;5092927;28;20178;-81
2023/05/11 01:09:01;;;;;;;16.43;13.03;;;14.00;99.90;;;;;;5075744;28;20430;-80
2023/05/11 01:11:42;;;;;;;19.67;14.70;;;14.10;99.90;;;;;;5087907;28;20435;-82
2023/05/11 01:14:14;;;;;;;19.90;13.07;;;14.10;99.90;;;;;;5094384;28;20529;-83
2023/05/11 01:16:45;;;;;;;23.50;15.87;;;14.10;99.90;;;;;;5069364;28;20521;-80
2023/05/11 01:19:40;;;;;;;19.40;15.10;;;14.10;99.90;;;;;;5091698;28;21033;-81
2023/05/11 01:22:18;;;;;;;26.20;16.47;;;14.10;99.90;;;;;;5089648;28;20983;-80
2023/05/11 01:24:56;;;;;;;20.80;14.70;;;14.10;99.90;;;;;;5078545;28;20466;-82
2023/05/11 01:27:46;;;;;;;21.07;14.07;;;14.10;99.90;;;;;;5083256;28;20752;-82
2023/05/11 01:30:25;;;;;;;19.03;14.57;;;14.10;99.90;;;;;;5092481;28;20437;-83
2023/05/11 01:32:54;;;;;;;19.90;13.50;;;14.10;99.90;;;;;;5075748;28;20455;-78
2023/05/11 01:35:23;;;;;;;19.13;13.43;;;14.10;99.90;;;;;;5060148;28;20812;-81
2023/05/11 01:37:56;;;;;;;20.90;15.30;;;14.10;99.90;;;;;;5080207;28;20555;-82
2023/05/11 01:40:26;;;;;;;21.60;14.40;;;14.10;99.90;;;;;;5094925;28;20423;-82
2023/05/11 01:43:02;;;;;;;23.00;14.77;;;14.10;99.90;;;;;;5073889;28;20455;-82
2023/05/11 01:45:31;;;;;;;21.10;14.27;;;14.10;99.90;;;;;;5092290;28;20787;-80
2023/05/11 01:48:00;;;;;;;25.93;13.57;;;14.20;99.90;;;;;;5087722;28;20426;-83
2023/05/11 01:50:26;;;;;;;18.90;13.43;;;14.20;99.90;;;;;;5090370;28;20425;-83
2023/05/11 01:52:52;;;;;;;19.93;14.80;;;14.10;99.90;;;;;;5082112;28;20463;-82
2023/05/11 01:55:21;;;;;;;20.07;14.00;;;14.10;99.90;;;;;;5093301;28;20718;-82
2023/05/11 01:57:49;;;;;;;20.43;14.90;;;14.20;99.90;;;;;;5078755;28;20469;-80
2023/05/11 02:00:16;;;;;;;20.57;15.50;;;14.20;99.90;;;;;;5094986;28;20415;-82
2023/05/11 02:02:44;;;;;;;24.87;15.43;;;14.10;99.90;;;;;;5083638;28;20492;-82
2023/05/11 02:05:10;;;;;;;26.40;16.27;;;14.10;99.90;;;;;;5094584;28;20503;-83
2023/05/11 02:07:37;;;;;;;21.20;15.33;;;14.00;99.90;;;;;;5066990;28;20480;-80
2023/05/11 02:10:03;;;;;;;25.20;17.90;;;14.00;99.90;;;;;;5095055;28;20821;-82
2023/05/11 02:12:30;;;;;;;27.37;16.53;;;13.90;99.90;;;;;;5082729;28;20457;-81
2023/05/11 02:14:56;;;;;;;26.10;17.80;;;13.90;1.00;;;;;;5074506;28;20502;-81
2023/05/11 02:17:23;;;;;;;27.80;18.20;;;13.80;1.00;;;;;;5092361;28;20427;-82
2023/05/11 02:19:50;;;;;;;29.87;18.80;;;13.80;1.00;;;;;;5093652;28;20466;-80
2023/05/11 02:22:19;;;;;;;28.17;17.83;;;13.80;1.00;;;;;;5093637;28;20451;-81
2023/05/11 02:24:46;;;;;;;27.57;18.77;;;13.70;1.00;;;;;;5092519;28;20468;-79
2023/05/11 02:27:11;;;;;;;31.43;17.80;;;13.70;1.00;;;;;;5092935;28;20453;-82
2023/05/11 02:29:37;;;;;;;25.23;17.53;;;13.70;1.00;;;;;;5090390;28;20936;-79
2023/05/11 02:32:08;;;;;;;40.07;20.17;;;13.70;1.00;;;;;;5078718;28;20290;-83
2023/05/11 02:34:42;;;;;;;33.03;20.80;;;13.70;1.00;;;;;;5085866;28;20237;-79
2023/05/11 02:37:12;;;;;;;30.80;19.70;;;13.60;1.00;;;;;;5092943;28;20510;-82
2023/05/11 02:39:39;;;;;;;33.90;22.87;;;13.60;1.00;;;;;;5082283;28;20468;-80
2023/05/11 02:42:11;;;;;;;29.90;21.30;;;13.60;1.00;;;;;;5094065;28;20450;-83
2023/05/11 02:44:39;;;;;;;28.53;19.97;;;13.60;1.00;;;;;;5090257;28;20450;-81
2023/05/11 02:47:11;;;;;;;33.13;21.27;;;13.60;1.00;;;;;;5093976;28;20429;-82
2023/05/11 02:49:38;;;;;;;31.03;21.63;;;13.60;1.00;;;;;;5073076;28;20446;-81
2023/05/11 02:52:06;;;;;;;31.67;21.27;;;13.60;1.00;;;;;;5093357;28;20468;-82
2023/05/11 02:54:32;;;;;;;33.73;20.50;;;13.50;1.00;;;;;;5087426;28;20461;-80
2023/05/11 02:56:58;;;;;;;33.83;21.93;;;13.50;1.00;;;;;;5074168;28;20440;-82
2023/05/11 02:59:24;;;;;;;32.23;21.20;;;13.50;1.00;;;;;;5090264;28;20608;-83
2023/05/11 03:01:51;;;;;;;38.10;21.70;;;13.50;1.00;;;;;;5086727;28;20539;-81
2023/05/11 03:04:17;;;;;;;34.00;21.50;;;13.50;1.00;;;;;;5073001;28;20976;-82
2023/05/11 03:06:42;;;;;;;31.93;20.27;;;13.40;1.00;;;;;;5083949;28;20469;-81
2023/05/11 03:09:08;;;;;;;33.93;20.03;;;13.40;1.00;;;;;;5092929;28;20419;-82
2023/05/11 03:11:33;;;;;;;35.73;20.50;;;13.40;1.00;;;;;;5092937;28;20591;-82
2023/05/11 03:14:00;;;;;;;31.73;20.27;;;13.50;1.00;;;;;;5093750;28;20260;-79
2023/05/11 03:16:26;;;;;;;34.10;20.57;;;13.50;1.00;;;;;;5088327;28;20209;-80
2023/05/11 03:18:54;;;;;;;33.67;18.53;;;13.50;1.00;;;;;;5093868;28;20898;-81
2023/05/11 03:21:21;;;;;;;29.50;19.87;;;13.60;1.00;;;;;;5073128;28;20534;-82
2023/05/11 03:23:47;;;;;;;31.70;20.50;;;13.60;1.00;;;;;;5082101;28;20812;-82
2023/05/11 03:26:16;;;;;;;34.90;21.33;;;13.60;1.00;;;;;;5082297;28;20435;-81
2023/05/11 03:28:43;;;;;;;28.20;22.03;;;13.60;1.00;;;;;;5077478;28;20919;-83
2023/05/11 03:31:09;;;;;;;33.57;21.07;;;13.60;1.00;;;;;;5084025;28;20997;-82
2023/05/11 03:33:35;;;;;;;35.03;20.37;;;13.60;1.00;;;;;;5091538;28;20446;-83
2023/05/11 03:36:02;;;;;;;36.90;21.80;;;13.60;1.00;;;;;;5086473;28;20182;-83
2023/05/11 03:38:29;;;;;;;38.70;22.40;;;13.60;1.00;;;;;;5069335;28;20262;-80
2023/05/11 03:40:56;;;;;;;29.10;20.90;;;13.60;1.00;;;;;;5091572;28;20903;-81
2023/05/11 03:43:23;;;;;;;38.63;22.03;;;13.60;1.00;;;;;;5074313;28;20893;-80
2023/05/11 03:45:55;;;;;;;37.83;23.30;;;13.50;1.00;;;;;;5092642;28;20494;-82
2023/05/11 03:48:22;;;;;;;38.43;22.67;;;13.50;1.00;;;;;;5090497;28;20446;-79
2023/05/11 03:50:48;;;;;;;36.43;24.30;;;13.50;1.00;;;;;;5089006;28;20449;-82
2023/05/11 03:53:15;;;;;;;35.83;21.97;;;13.50;1.00;;;;;;5081872;28;20457;-82
2023/05/11 03:55:41;;;;;;;39.30;23.70;;;13.50;1.00;;;;;;5095868;28;20418;-82
2023/05/11 03:58:10;;;;;;;40.60;23.07;;;13.50;1.00;;;;;;5088074;28;20470;-82
2023/05/11 04:00:39;;;;;;;34.10;23.50;;;13.60;1.00;;;;;;5076357;28;20443;-81
2023/05/11 04:03:06;;;;;;;36.13;23.97;;;13.60;1.00;;;;;;5097065;28;20438;-82
2023/05/11 04:05:32;;;;;;;38.87;23.87;;;13.70;1.00;;;;;;5090448;28;20512;-82
2023/05/11 04:07:57;;;;;;;32.77;23.03;;;13.70;1.00;;;;;;5089056;28;20444;-80
2023/05/11 04:10:23;;;;;;;32.03;21.50;;;13.70;1.00;;;;;;5097092;28;20196;-80
2023/05/11 04:12:48;;;;;;;38.63;23.60;;;13.70;1.00;;;;;;5084491;28;20727;-83
2023/05/11 04:15:14;;;;;;;34.80;22.03;;;13.70;1.00;;;;;;5086724;28;20224;-83
2023/05/11 04:17:39;;;;;;;28.60;20.83;;;13.80;1.00;;;;;;5076487;28;20184;-81
2023/05/11 04:20:06;;;;;;;38.00;22.80;;;13.80;1.00;;;;;;5096332;28;20733;-83
2023/05/11 04:22:31;;;;;;;29.20;21.70;;;13.80;1.00;;;;;;5087595;28;20716;-83
2023/05/11 04:24:57;;;;;;;33.83;22.40;;;13.90;1.00;;;;;;5094848;28;20430;-83
2023/05/11 04:27:22;;;;;;;33.43;21.87;;;13.90;1.00;;;;;;5089006;28;20173;-82
2023/05/11 04:29:48;;;;;;;36.73;22.30;;;13.90;1.00;;;;;;5096212;28;20589;-82
2023/05/11 04:32:14;;;;;;;32.93;22.20;;;13.90;1.00;;;;;;5094927;28;20726;-83
2023/05/11 04:34:40;;;;;;;30.20;21.57;;;13.90;1.00;;;;;;5075249;28;20196;-83
2023/05/11 04:37:06;;;;;;;32.53;21.87;;;13.90;99.90;;;;;;5094180;28;20438;-83
2023/05/11 04:39:32;;;;;;;35.67;19.97;;;14.00;99.90;;;;;;5085617;28;20219;-83
2023/05/11 04:41:58;;;;;;;32.43;21.60;;;13.90;99.90;;;;;;5080672;28;20454;-82
2023/05/11 04:44:24;;;;;;;35.53;23.17;;;13.90;99.90;;;;;;5078015;28;20878;-81
2023/05/11 04:46:54;;;;;;;35.23;21.60;;;13.90;99.90;;;;;;5078241;28;20426;-82
2023/05/11 04:49:19;;;;;;;32.80;21.90;;;13.90;99.90;;;;;;5082689;28;20192;-81
2023/05/11 04:51:45;;;;;;;32.37;21.70;;;13.90;99.90;;;;;;5072650;28;20435;-83
2023/05/11 04:54:10;;;;;;;37.50;22.97;;;13.90;99.90;;;;;;5079136;28;20181;-82
2023/05/11 04:56:39;;;;;;;31.80;23.33;;;14.00;1.00;;;;;;5074635;28;20773;-82
2023/05/11 04:59:08;;;;;;;34.77;23.20;;;14.00;99.90;;;;;;5093636;28;20204;-82
2023/05/11 05:01:34;;;;;;;32.13;21.90;;;14.00;99.90;;;;;;5095494;28;20531;-81
2023/05/11 05:03:59;;;;;;;28.57;20.87;;;14.00;99.90;;;;;;5095206;28;20439;-83
2023/05/11 05:06:25;;;;;;;32.27;22.77;;;14.00;99.90;;;;;;5077877;28;20311;-83
2023/05/11 05:08:50;;;;;;;33.37;22.80;;;14.10;99.90;;;;;;5094676;28;20178;-82
2023/05/11 05:11:16;;;;;;;37.27;23.73;;;14.10;99.90;;;;;;5092944;28;20179;-83
2023/05/11 05:13:42;;;;;;;33.53;23.43;;;14.20;99.90;;;;;;5093158;28;20699;-82
2023/05/11 05:16:08;;;;;;;37.87;23.97;;;14.20;99.90;;;;;;5094859;28;20417;-82
2023/05/11 05:18:34;;;;;;;35.90;22.60;;;14.30;99.90;;;;;;5095425;28;20646;-82
2023/05/11 05:21:00;;;;;;;32.73;23.10;;;14.40;99.90;;;;;;5083330;28;20434;-79
2023/05/11 05:23:25;;;;;;;36.23;23.00;;;14.60;99.90;;;;;;5070772;28;20200;-84
2023/05/11 05:25:51;;;;;;;29.17;23.50;;;14.80;99.90;;;;;;5066977;28;20176;-82
2023/05/11 05:28:16;;;;;;;33.83;23.10;;;15.00;99.90;;;;;;5074050;28;20188;-83
2023/05/11 05:30:42;;;;;;;35.57;23.60;;;15.20;99.90;;;;;;5077049;28;20191;-81
2023/05/11 05:33:07;;;;;;;40.70;22.70;;;15.30;69.80;;;;;;5083255;28;20669;-80
2023/05/11 05:35:33;;;;;;;29.40;21.03;;;15.40;1.00;;;;;;5074801;28;20219;-83
2023/05/11 05:37:58;;;;;;;32.33;21.80;;;15.60;1.00;;;;;;5074914;28;20230;-79
2023/05/11 05:40:24;;;;;;;35.53;21.53;;;15.70;1.00;;;;;;5067398;28;20671;-80
2023/05/11 05:42:49;;;;;;;34.00;20.47;;;15.80;99.90;;;;;;5073720;28;20201;-80
2023/05/11 05:45:15;;;;;;;28.90;21.73;;;15.90;90.50;;;;;;5074117;28;20224;-81
2023/05/11 05:47:41;;;;;;;33.37;24.47;;;16.20;1.00;;;;;;5074348;28;20407;-81
2023/05/11 05:50:07;;;;;;;29.97;20.90;;;16.20;99.90;;;;;;5073620;28;20192;-81
2023/05/11 05:52:33;;;;;;;30.37;22.63;;;16.10;1.00;;;;;;5090841;28;20596;-80
2023/05/11 05:54:58;;;;;;;35.53;23.77;;;16.10;1.00;;;;;;5082094;28;20427;-78
2023/05/11 05:57:24;;;;;;;29.27;21.27;;;16.10;1.00;;;;;;5065619;28;20639;-82
2023/05/11 05:59:49;;;;;;;28.07;21.40;;;16.10;1.00;;;;;;5077212;28;20219;-80
2023/05/11 06:02:15;;;;;;;26.33;20.27;;;16.10;1.00;;;;;;5091338;28;20283;-82
2023/05/11 06:04:41;;;;;;;26.73;18.77;;;16.10;1.00;;;;;;5076431;28;20522;-82
2023/05/11 06:07:07;;;;;;;26.77;18.90;;;16.20;99.90;;;;;;5070834;28;20459;-80
2023/05/11 06:09:32;;;;;;;27.30;18.93;;;16.30;99.90;;;;;;5062651;28;20474;-83
2023/05/11 06:11:58;;;;;;;32.80;20.10;;;16.40;1.00;;;;;;5073289;28;20186;-80
2023/05/11 06:14:23;;;;;;;27.33;18.50;;;16.70;99.90;;;;;;5074788;28;20188;-82
2023/05/11 06:16:49;;;;;;;28.03;19.10;;;17.00;1.00;;;;;;5065674;28;20305;-84
2023/05/11 06:19:15;;;;;;;28.93;20.43;;;17.30;1.00;;;;;;5087198;28;20655;-81
2023/05/11 06:21:42;;;;;;;31.37;20.33;;;17.60;99.90;;;;;;5089626;28;20426;-82
2023/05/11 06:24:07;;;;;;;33.90;22.10;;;17.80;99.90;;;;;;5084963;28;20179;-83
2023/05/11 06:26:33;;;;;;;34.20;21.90;;;17.90;1.00;;;;;;5078014;28;20501;-81
2023/05/11 06:28:59;;;;;;;30.33;20.23;;;18.00;1.00;;;;;;5082083;28;20187;-82
2023/05/11 06:31:24;;;;;;;43.43;23.67;;;18.30;99.90;;;;;;5065456;28;20187;-82
2023/05/11 06:33:50;;;;;;;34.80;22.50;;;18.30;99.90;;;;;;5072548;28;20197;-82
2023/05/11 06:36:15;;;;;;;34.00;22.67;;;18.20;99.90;;;;;;5074193;28;20193;-80
2023/05/11 06:38:41;;;;;;;36.03;24.63;;;17.90;99.90;;;;;;5073230;28;20640;-81
2023/05/11 06:41:08;;;;;;;41.10;24.07;;;17.70;99.90;;;;;;5089390;28;20848;-79
2023/05/11 06:43:34;;;;;;;38.00;22.63;;;17.40;99.90;;;;;;5062999;28;20267;-82
2023/05/11 06:45:59;;;;;;;30.73;21.90;;;17.20;1.00;;;;;;5073266;28;20959;-79
2023/05/11 06:48:28;;;;;;;33.40;22.30;;;17.00;1.00;;;;;;5062430;28;20185;-82
2023/05/11 06:50:54;;;;;;;34.03;19.87;;;16.80;37.20;;;;;;5076500;28;20541;-81
2023/05/11 06:53:20;;;;;;;31.00;18.30;;;16.50;99.90;;;;;;5063799;28;20536;-80
2023/05/11 06:55:46;;;;;;;31.43;18.17;;;16.40;1.00;;;;;;5066110;28;20448;-82
2023/05/11 06:58:11;;;;;;;30.57;19.57;;;16.40;1.00;;;;;;5066920;28;20204;-82
2023/05/11 07:00:37;;;;;;;28.00;18.10;;;16.30;1.00;;;;;;5059161;28;20193;-79
2023/05/11 07:03:03;;;;;;;36.97;19.37;;;16.40;1.00;;;;;;5056765;28;20284;-80
2023/05/11 07:05:29;;;;;;;25.30;18.47;;;16.50;1.00;;;;;;5062774;28;20187;-80
2023/05/11 07:07:54;;;;;;;29.00;21.33;;;16.70;1.00;;;;;;5077570;28;20427;-82
2023/05/11 07:10:20;;;;;;;34.40;20.50;;;17.10;1.00;;;;;;5077047;28;20452;-82
2023/05/11 07:12:45;;;;;;;25.13;18.07;;;17.30;99.90;;;;;;5062194;28;20601;-83
2023/05/11 07:15:11;;;;;;;28.30;19.60;;;17.40;21.90;;;;;;5063968;28;20683;-79
2023/05/11 07:17:36;;;;;;;23.33;17.40;;;17.50;1.00;;;;;;5064269;28;20241;-81
2023/05/11 07:20:02;;;;;;;32.63;17.10;;;17.50;1.00;;;;;;5056799;28;20199;-83
2023/05/11 07:22:28;;;;;;;25.40;16.93;;;17.50;99.90;;;;;;5069882;28;20206;-81
2023/05/11 07:24:53;;;;;;;26.57;17.57;;;17.50;99.90;;;;;;5065683;28;20209;-82
2023/05/11 07:27:19;;;;;;;28.20;17.40;;;17.60;99.90;;;;;;5073787;28;20188;-82
2023/05/11 07:29:44;;;;;;;29.67;16.23;;;17.90;99.90;;;;;;5067677;28;20199;-82
2023/05/11 07:32:10;;;;;;;26.70;16.20;;;18.70;42.40;;;;;;5065215;28;20689;-81
2023/05/11 07:34:35;;;;;;;26.10;13.87;;;20.60;1.00;;;;;;5080591;28;20207;-81
2023/05/11 07:37:01;;;;;;;21.20;13.40;;;23.40;99.90;;;;;;5073756;28;20199;-82
2023/05/11 07:39:26;;;;;;;23.83;14.77;;;24.70;99.90;;;;;;5078118;28;20618;-81
2023/05/11 07:41:52;;;;;;;22.77;15.67;;;25.10;99.90;;;;;;5073435;28;20574;-81
2023/05/11 07:44:17;;;;;;;20.77;14.87;;;24.90;99.90;;;;;;5069925;28;20192;-82
2023/05/11 07:46:43;;;;;;;20.90;13.67;;;24.80;99.90;;;;;;5068541;28;20191;-84
2023/05/11 07:49:09;;;;;;;26.97;15.00;;;25.00;99.90;;;;;;5077353;28;20268;-83
2023/05/11 07:51:35;;;;;;;25.60;14.97;;;25.10;99.90;;;;;;5074411;28;20692;-82
2023/05/11 07:54:01;;;;;;;22.50;15.40;;;25.20;99.90;;;;;;5074644;28;20462;-83
2023/05/11 07:56:26;;;;;;;22.60;15.70;;;25.70;99.90;;;;;;5064200;28;20674;-83
2023/05/11 07:58:52;;;;;;;20.10;14.57;;;25.60;99.90;;;;;;5089710;28;20204;-84
2023/05/11 08:01:17;;;;;;;21.37;14.50;;;26.30;99.90;;;;;;5090907;28;20177;-82
2023/05/11 08:03:43;;;;;;;19.90;14.37;;;26.30;99.90;;;;;;5080116;28;20196;-82
2023/05/11 08:06:08;;;;;;;21.30;14.33;;;25.00;99.90;;;;;;5080740;28;20253;-84
2023/05/11 08:08:34;;;;;;;21.70;15.60;;;23.60;99.90;;;;;;5070491;28;20576;-82
2023/05/11 08:11:00;;;;;;;26.47;14.97;;;22.40;99.90;;;;;;5082239;28;20229;-83
2023/05/11 08:13:26;;;;;;;21.83;15.67;;;21.30;99.90;;;;;;5085025;28;20207;-83
2023/05/11 08:15:51;;;;;;;31.60;16.80;;;20.50;99.90;;;;;;5088057;28;20450;-82
2023/05/11 08:18:17;;;;;;;24.53;17.10;;;19.80;99.90;;;;;;5096049;28;20210;-83
2023/05/11 08:20:42;;;;;;;24.37;16.27;;;19.30;99.90;;;;;;5082368;28;20191;-81
2023/05/11 08:23:09;;;;;;;27.77;16.13;;;18.80;99.90;;;;;;5070116;28;20300;-83
2023/05/11 08:25:35;;;;;;;24.20;16.77;;;18.40;99.90;;;;;;5080436;28;20239;-80
2023/05/11 08:28:01;;;;;;;26.23;16.00;;;18.10;1.00;;;;;;5087500;28;20525;-80
2023/05/11 08:30:27;;;;;;;25.73;16.90;;;18.00;1.00;;;;;;5075624;28;20601;-80
2023/05/11 08:32:52;;;;;;;27.47;16.97;;;18.00;1.00;;;;;;5094867;28;20460;-81
2023/05/11 08:35:18;;;;;;;28.33;15.17;;;18.00;1.00;;;;;;5073561;28;20185;-83
2023/05/11 08:37:44;;;;;;;21.40;15.77;;;18.10;1.00;;;;;;5061429;28;20578;-83
2023/05/11 08:40:12;;;;;;;26.50;16.43;;;18.20;1.00;;;;;;5067138;28;20188;-82
2023/05/11 08:42:40;;;;;;;21.93;15.70;;;18.20;1.00;;;;;;5069569;28;20282;-80
2023/05/11 08:45:06;;;;;;;25.20;16.70;;;18.20;1.00;;;;;;5082348;28;20558;-82
2023/05/11 08:47:32;;;;;;;23.53;16.23;;;18.20;1.00;;;;;;5074150;28;20438;-81
2023/05/11 08:49:58;;;;;;;27.57;18.10;;;18.20;1.00;;;;;;5064850;28;20523;-83
2023/05/11 08:52:25;;;;;;;27.40;17.17;;;18.30;1.00;;;;;;5086106;28;20549;-80
2023/05/11 08:54:52;;;;;;;25.37;16.80;;;18.40;1.00;;;;;;5072764;28;20200;-83
2023/05/11 08:57:18;;;;;;;26.67;16.60;;;18.50;1.00;;;;;;5064909;28;20495;-83
2023/05/11 08:59:45;;;;;;;30.40;18.03;;;18.60;1.00;;;;;;5065121;28;20474;-82
2023/05/11 09:02:15;;;;;;;24.90;15.57;;;18.70;1.00;;;;;;5084527;28;20500;-81
2023/05/11 09:04:42;;;;;;;23.13;15.30;;;18.80;1.00;;;;;;5084471;28;20726;-82
2023/05/11 09:07:10;;;;;;;25.80;15.20;;;18.80;1.00;;;;;;5088645;28;20952;-82
2023/05/11 09:09:36;;;;;;;26.50;16.37;;;18.80;1.00;;;;;;5069332;28;20966;-80
2023/05/11 09:12:02;;;;;;;27.57;16.53;;;18.90;1.00;;;;;;5067741;28;20482;-80
2023/05/11 09:14:28;;;;;;;22.87;15.53;;;19.10;1.00;;;;;;5064251;28;20194;-82
2023/05/11 09:16:54;;;;;;;28.37;16.03;;;19.20;99.90;;;;;;5083552;28;20485;-84
2023/05/11 09:19:20;;;;;;;23.20;15.07;;;19.40;99.90;;;;;;5079692;28;20614;-81
2023/05/11 09:21:46;;;;;;;24.97;14.93;;;19.60;99.90;;;;;;5067307;28;20188;-82
2023/05/11 09:24:12;;;;;;;32.10;14.57;;;19.70;99.90;;;;;;5087208;28;20790;-82
2023/05/11 09:26:38;;;;;;;27.93;14.57;;;19.90;99.90;;;;;;5068952;28;20439;-81
2023/05/11 09:29:03;;;;;;;24.00;14.20;;;20.10;99.90;;;;;;5072237;28;20438;-83
2023/05/11 09:31:37;;;;;;;23.00;14.63;;;20.30;99.90;;;;;;5076225;28;20234;-83
2023/05/11 09:34:09;;;;;;;27.03;15.30;;;20.50;99.90;;;;;;5063701;28;20226;-83
2023/05/11 09:36:35;;;;;;;22.40;13.90;;;20.70;99.90;;;;;;5076847;28;20474;-81
2023/05/11 09:39:02;;;;;;;21.43;14.50;;;20.90;99.90;;;;;;5074309;28;20486;-80
2023/05/11 09:41:29;;;;;;;20.70;13.93;;;21.00;99.90;;;;;;5071161;28;20269;-83
2023/05/11 09:44:12;;;;;;;22.63;16.00;;;21.10;99.90;;;;;;5071545;28;20896;-84
2023/05/11 09:46:43;;;;;;;21.73;13.87;;;21.20;99.90;;;;;;5072693;28;20440;-79
2023/05/11 09:49:09;;;;;;;24.77;14.20;;;21.40;99.90;;;;;;5069290;28;20700;-82
2023/05/11 09:51:37;;;;;;;20.10;15.23;;;21.50;99.90;;;;;;5093994;28;20504;-84
2023/05/11 09:54:20;;;;;;;25.57;17.00;;;21.60;99.90;;;;;;5077004;28;20871;-80
2023/05/11 09:56:53;;;;;;;26.20;15.40;;;21.40;99.90;;;;;;5066890;28;20518;-83
2023/05/11 09:59:39;;;;;;;22.30;16.03;;;21.20;99.90;;;;;;5079267;28;20475;-84
2023/05/11 10:02:19;;;;;;;30.10;18.83;;;20.80;99.90;;;;;;5085316;28;20451;-84
2023/05/11 10:04:45;;;;;;;25.43;17.80;;;20.70;99.90;;;;;;5070375;28;20439;-80
2023/05/11 10:07:21;;;;;;;27.13;16.43;;;20.70;99.90;;;;;;5080536;28;20951;-81
2023/05/11 10:09:47;;;;;;;28.30;16.77;;;20.80;99.90;;;;;;5074403;28;20222;-81
2023/05/11 10:12:13;;;;;;;31.80;17.07;;;21.10;99.90;;;;;;5065906;28;20480;-81
2023/05/11 10:14:39;;;;;;;25.53;15.20;;;21.50;99.90;;;;;;5067193;28;20191;-82
2023/05/11 10:17:04;;;;;;;22.07;14.93;;;21.90;99.90;;;;;;5062634;28;20830;-81
2023/05/11 10:19:31;;;;;;;19.67;14.23;;;21.70;99.90;;;;;;5063095;28;20468;-80
2023/05/11 10:21:59;;;;;;;20.67;14.70;;;21.20;99.90;;;;;;5073399;28;20173;-80
2023/05/11 10:24:25;;;;;;;22.13;14.13;;;20.60;99.90;;;;;;5084852;28;20441;-82
2023/05/11 10:26:51;;;;;;;25.80;13.40;;;20.00;99.90;;;;;;5061520;28;20465;-82
2023/05/11 10:29:18;;;;;;;19.13;12.53;;;19.70;99.90;;;;;;5072556;28;20497;-83
2023/05/11 10:31:45;;;;;;;25.57;14.07;;;19.50;99.90;;;;;;5082935;28;20466;-79
2023/05/11 10:34:11;;;;;;;21.50;14.40;;;19.40;99.90;;;;;;5072352;28;20453;-82
2023/05/11 10:36:37;;;;;;;20.63;14.50;;;19.30;99.90;;;;;;5079793;28;20457;-80
2023/05/11 10:39:03;;;;;;;17.43;13.50;;;19.40;99.90;;;;;;5079284;28;20857;-83
2023/05/11 10:41:50;;;;;;;24.20;14.37;;;19.50;99.90;;;;;;5078074;28;20514;-84
2023/05/11 10:44:26;;;;;;;18.30;13.33;;;19.70;99.90;;;;;;5078392;28;20192;-82
2023/05/11 10:47:13;;;;;;;19.67;13.63;;;19.90;99.90;;;;;;5086660;28;21010;-81
2023/05/11 10:50:16;;;;;;;18.57;13.40;;;20.00;99.90;;;;;;5070328;28;20446;-80
2023/05/11 10:53:00;;;;;;;20.83;13.53;;;20.30;99.90;;;;;;5065717;28;20467;-81
2023/05/11 10:55:48;;;;;;;19.67;14.13;;;20.60;99.90;;;;;;5063725;28;20432;-82
2023/05/11 10:58:20;;;;;;;23.80;14.20;;;20.60;99.90;;;;;;5067605;28;20499;-82
2023/05/11 11:00:57;;;;;;;17.93;13.30;;;20.80;99.90;;;;;;5081233;28;20460;-80
2023/05/11 11:03:23;;;;;;;22.60;12.90;;;21.10;99.90;;;;;;5078338;28;20447;-81
2023/05/11 11:05:49;;;;;;;23.17;13.37;;;21.20;99.90;;;;;;5072977;28;20440;-82
2023/05/11 11:08:14;;;;;;;20.47;13.87;;;21.40;99.90;;;;;;5079352;28;20185;-83
2023/05/11 11:10:44;;;;;;;23.63;14.30;;;21.50;99.90;;;;;;5065416;28;20197;-83
2023/05/11 11:13:14;;;;;;;18.40;14.50;;;21.60;99.90;;;;;;5085787;28;20765;-80
2023/05/11 11:15:55;;;;;;;20.60;14.73;;;21.60;99.90;;;;;;5075450;28;20463;-82
2023/05/11 11:18:28;;;;;;;22.50;14.53;;;21.50;99.90;;;;;;5085914;28;20512;-84
2023/05/11 11:20:55;;;;;;;17.70;14.53;;;21.30;99.90;;;;;;5075397;28;20434;-80
2023/05/11 11:23:53;;;;;;;20.70;14.07;;;21.30;99.90;;;;;;5079543;28;20468;-82
2023/05/11 11:26:45;;;;;;;23.67;14.10;;;21.40;99.90;;;;;;5050855;28;20449;-83
2023/05/11 11:29:10;;;;;;;18.60;13.87;;;21.50;99.90;;;;;;5086381;28;20490;-82
2023/05/11 11:31:37;;;;;;;21.00;14.43;;;21.50;99.90;;;;;;5084165;28;20452;-81
2023/05/11 11:34:27;;;;;;;20.50;13.17;;;21.60;99.90;;;;;;5071753;28;20215;-81
2023/05/11 11:37:02;;;;;;;23.37;14.70;;;21.80;99.90;;;;;;5070870;28;20430;-81
2023/05/11 11:39:45;;;;;;;25.50;14.30;;;22.10;99.90;;;;;;5075490;28;20473;-80
2023/05/11 11:42:15;;;;;;;21.93;14.27;;;22.30;99.90;;;;;;5083579;28;20540;-82
2023/05/11 11:44:43;;;;;;;20.23;13.60;;;22.50;99.90;;;;;;5081122;28;20513;-81
2023/05/11 11:47:20;;;;;;;16.50;12.63;;;22.70;99.90;;;;;;5071529;28;20435;-83
2023/05/11 11:49:47;;;;;;;19.57;12.80;;;22.80;99.90;;;;;;5086625;28;20491;-81
2023/05/11 11:52:31;;;;;;;15.33;11.70;;;23.00;99.90;;;;;;5068074;28;20453;-83
2023/05/11 11:54:58;;;;;;;23.40;12.30;;;23.30;99.90;;;;;;5079765;28;20902;-81
2023/05/11 11:57:33;;;;;;;22.23;13.50;;;23.40;99.90;;;;;;5087247;28;20438;-80
2023/05/11 12:00:09;;;;;;;25.20;12.77;;;23.50;99.90;;;;;;5093894;28;20957;-80
2023/05/11 12:02:42;;;;;;;20.20;12.20;;;23.70;99.90;;;;;;5071884;28;20551;-82
2023/05/11 12:05:21;;;;;;;18.23;12.90;;;24.00;99.90;;;;;;5094068;28;20776;-80
2023/05/11 12:07:50;;;;;;;18.23;13.33;;;24.10;99.90;;;;;;5085697;28;20433;-82
2023/05/11 12:10:17;;;;;;;18.30;12.10;;;24.20;99.90;;;;;;5083549;28;20420;-84
2023/05/11 12:12:50;;;;;;;16.40;12.87;;;24.30;99.90;;;;;;5075012;28;20467;-84
2023/05/11 12:15:28;;;;;;;18.13;12.80;;;24.30;99.90;;;;;;5070522;28;20430;-79
2023/05/11 12:17:55;;;;;;;16.53;12.67;;;24.20;99.90;;;;;;5080824;28;20503;-81
2023/05/11 12:20:21;;;;;;;20.47;13.03;;;23.90;99.90;;;;;;5075460;28;20436;-79
2023/05/11 12:22:48;;;;;;;16.90;12.13;;;23.60;99.90;;;;;;5068632;28;22732;-78
2023/05/11 12:25:18;;;;;;;22.67;13.43;;;23.60;99.90;;;;;;5078892;28;20417;-80
2023/05/11 12:27:56;;;;;;;16.47;12.80;;;23.70;99.90;;;;;;5073689;28;20451;-79
2023/05/11 12:30:24;;;;;;;18.07;11.83;;;23.90;99.90;;;;;;5072061;28;20443;-82
2023/05/11 12:32:51;;;;;;;17.60;13.23;;;24.10;99.90;;;;;;5088393;28;20466;-82
2023/05/11 12:35:25;;;;;;;14.30;11.47;;;24.30;99.90;;;;;;5082817;28;20434;-84